This is the latest recevied weather packets stored in our database for station/object 9W2SSS-1. If no packets are shown the sender has not sent any weather packets the latest 10 day(s).
| Time | Temp. | Humidity | Pressure | Rain* | Wind** | Luminosity | Snow |
|---|---|---|---|---|---|---|---|
| 1777491791 | 30° C | 66% | 1008.2 hPa | - | - | - | - |
| 1777490591 | 30° C | 66% | 1008.1 hPa | - | - | - | - |
| 1777489391 | 30.56° C | 66% | 1008.3 hPa | - | - | - | - |
| 1777488191 | 30.56° C | 65% | 1008.5 hPa | - | - | - | - |
| 1777486991 | 30.56° C | 65% | 1008.9 hPa | - | - | - | - |
| 1777485791 | 30.56° C | 65% | 1009.1 hPa | - | - | - | - |
| 1777484591 | 30.56° C | 64% | 1009.2 hPa | - | - | - | - |
| 1777483390 | 30° C | 63% | 1009.4 hPa | - | - | - | - |
| 1777482190 | 30° C | 63% | 1009.6 hPa | - | - | - | - |
| 1777480990 | 30° C | 61% | 1009.7 hPa | - | - | - | - |
| 1777479790 | 30° C | 61% | 1009.6 hPa | - | - | - | - |
| 1777478590 | 30.56° C | 60% | 1009.6 hPa | - | - | - | - |
| 1777477390 | 31.11° C | 60% | 1009.7 hPa | - | - | - | - |
| 1777476190 | 31.11° C | 61% | 1009.7 hPa | - | - | - | - |
| 1777474990 | 31.11° C | 61% | 1009.5 hPa | - | - | - | - |
| 1777473790 | 31.11° C | 60% | 1009.4 hPa | - | - | - | - |
| 1777472589 | 31.11° C | 59% | 1009.4 hPa | - | - | - | - |
| 1777471389 | 31.67° C | 60% | 1009.3 hPa | - | - | - | - |
| 1777470189 | 31.67° C | 59% | 1008.9 hPa | - | - | - | - |
| 1777468989 | 31.67° C | 59% | 1008.8 hPa | - | - | - | - |
| 1777467789 | 31.11° C | 58% | 1008.8 hPa | - | - | - | - |
| 1777466589 | 31.11° C | 57% | 1008.7 hPa | - | - | - | - |
| 1777465389 | 30.56° C | 51% | 1008.6 hPa | - | - | - | - |
| 1777464189 | 31.11° C | 54% | 1007.9 hPa | - | - | - | - |
| 1777462989 | 31.67° C | 54% | 1007.2 hPa | - | - | - | - |
* Rain since midnight (hover to see other rain measurements)
** Current wind speed in m/s (hover to see current wind gust speed)